Time;durP1;ratioP1;P1;durP2;ratioP2;P2;SDS_P1;SDS_P2;PMS_P1;PMS_P2;Temp;Humidity;BMP_temperature;BMP_pressure;BME280_temperature;BME280_humidity;BME280_pressure;Samples;Min_cycle;Max_cycle;Signal;HPM_P1;HPM_P2
2023/05/17 00:00:12;;;;;;;5.07;0.90;;;;;;;8.33;77.98;101351.88;5059082;28;20494;-68
2023/05/17 00:02:39;;;;;;;6.83;1.07;;;;;;;8.36;78.02;101355.94;5056471;28;20446;-68
2023/05/17 00:05:06;;;;;;;6.80;1.30;;;;;;;8.42;77.89;101354.91;5056003;28;20497;-67
2023/05/17 00:07:33;;;;;;;5.00;1.10;;;;;;;8.41;78.04;101342.50;5055661;28;20959;-68
2023/05/17 00:10:01;;;;;;;5.67;1.33;;;;;;;8.44;78.42;101349.22;5055452;28;21004;-67
2023/05/17 00:12:28;;;;;;;5.37;1.30;;;;;;;8.46;78.24;101349.78;5055824;28;20448;-68
2023/05/17 00:14:54;;;;;;;6.87;1.17;;;;;;;8.46;78.35;101347.91;5055482;28;20438;-68
2023/05/17 00:17:21;;;;;;;5.40;1.40;;;;;;;8.45;78.91;101348.16;5055782;28;20820;-68
2023/05/17 00:19:48;;;;;;;9.73;1.57;;;;;;;8.50;78.43;101353.53;5055320;28;20505;-68
2023/05/17 00:22:14;;;;;;;6.13;1.37;;;;;;;8.46;77.83;101355.19;5055323;28;20440;-68
2023/05/17 00:24:41;;;;;;;12.00;2.20;;;;;;;8.46;76.25;101355.19;5055253;28;20457;-68
2023/05/17 00:27:09;;;;;;;5.27;1.20;;;;;;;8.35;74.48;101352.41;5055209;28;20966;-68
2023/05/17 00:29:35;;;;;;;6.10;1.20;;;;;;;8.17;75.50;101346.72;5055125;28;20489;-68
2023/05/17 00:32:02;;;;;;;7.63;1.67;;;;;;;7.97;76.80;101347.44;5055383;28;20496;-68
2023/05/17 00:34:28;;;;;;;6.07;1.20;;;;;;;7.91;75.94;101348.53;5055443;28;20524;-68
2023/05/17 00:36:55;;;;;;;5.20;1.10;;;;;;;7.85;77.37;101350.41;5055008;28;20534;-68
2023/05/17 00:39:22;;;;;;;4.70;0.90;;;;;;;7.89;77.89;101345.28;5055122;28;20501;-68
2023/05/17 00:41:48;;;;;;;13.60;1.60;;;;;;;7.96;79.91;101351.22;5055287;28;20478;-68
2023/05/17 00:44:16;;;;;;;5.03;0.90;;;;;;;8.01;80.93;101352.09;5055239;28;20457;-68
2023/05/17 00:46:43;;;;;;;5.73;1.30;;;;;;;8.01;82.10;101346.69;5055257;28;20883;-68
2023/05/17 00:49:09;;;;;;;14.03;1.40;;;;;;;8.07;82.36;101347.50;5055088;28;20466;-68
2023/05/17 00:51:36;;;;;;;5.43;1.00;;;;;;;8.07;84.01;101344.81;5055263;28;20508;-68
2023/05/17 00:54:04;;;;;;;10.90;1.97;;;;;;;8.13;83.65;101346.44;5055017;28;20438;-68
2023/05/17 00:56:31;;;;;;;4.93;1.17;;;;;;;8.14;84.45;101348.03;5054712;28;20966;-68
2023/05/17 00:58:58;;;;;;;11.03;1.90;;;;;;;8.19;84.80;101356.19;5054564;28;20507;-68
2023/05/17 01:01:27;;;;;;;6.43;1.87;;;;;;;8.22;84.87;101355.63;5054686;28;20437;-68
2023/05/17 01:03:53;;;;;;;11.13;1.50;;;;;;;8.22;84.82;101350.22;5054903;28;20496;-68
2023/05/17 01:06:20;;;;;;;7.13;1.40;;;;;;;8.25;85.27;101343.50;5054537;28;20889;-68
2023/05/17 01:08:46;;;;;;;8.00;1.10;;;;;;;8.31;84.93;101345.94;5054706;28;20923;-70
2023/05/17 01:11:26;;;;;;;11.37;1.50;;;;;;;8.28;85.11;101351.88;5054647;28;20489;-72
2023/05/17 01:14:02;;;;;;;5.60;1.30;;;;;;;8.33;84.87;101354.59;5053574;28;20913;-69
2023/05/17 01:16:38;;;;;;;10.43;1.50;;;;;;;8.34;84.79;101361.59;5054641;28;20414;-69
2023/05/17 01:19:15;;;;;;;15.23;1.87;;;;;;;8.35;84.99;101355.13;5054233;28;20542;-70
2023/05/17 01:21:57;;;;;;;7.40;1.60;;;;;;;8.30;85.72;101363.22;5054406;28;20962;-70
2023/05/17 01:24:27;;;;;;;5.77;1.43;;;;;;;8.33;85.55;101361.88;5054638;28;20423;-70
2023/05/17 01:26:56;;;;;;;6.63;1.70;;;;;;;8.29;86.10;101363.50;5054418;28;20449;-69
2023/05/17 01:29:26;;;;;;;6.10;1.33;;;;;;;8.26;86.49;101372.91;5054295;28;20561;-69
2023/05/17 01:31:53;;;;;;;6.73;1.50;;;;;;;8.23;86.74;101356.44;5054003;28;21006;-69
2023/05/17 01:34:26;;;;;;;5.43;1.50;;;;;;;8.19;86.05;101361.56;5054287;28;20448;-69
2023/05/17 01:36:53;;;;;;;10.73;2.27;;;;;;;8.19;86.08;101369.66;5054287;28;20419;-69
2023/05/17 01:39:19;;;;;;;9.23;1.43;;;;;;;8.19;85.21;101355.34;5054120;28;20464;-69
2023/05/17 01:41:54;;;;;;;5.70;1.43;;;;;;;8.27;85.08;101373.72;5054124;28;20529;-69
2023/05/17 01:44:27;;;;;;;8.20;2.07;;;;;;;8.17;83.38;101363.72;5054165;28;20422;-70
2023/05/17 01:47:00;;;;;;;8.07;1.87;;;;;;;8.23;85.45;101367.22;5053750;28;20429;-69
2023/05/17 01:49:30;;;;;;;5.90;1.83;;;;;;;8.17;86.73;101374.50;5053913;28;20512;-69
2023/05/17 01:52:03;;;;;;;6.60;1.80;;;;;;;8.07;86.48;101375.28;5054112;28;20478;-69
2023/05/17 01:54:35;;;;;;;11.17;2.20;;;;;;;8.05;87.76;101376.63;5053646;28;20918;-69
2023/05/17 01:57:05;;;;;;;6.50;1.83;;;;;;;8.09;87.69;101377.72;5053880;28;20433;-69
2023/05/17 01:59:34;;;;;;;7.17;1.33;;;;;;;8.09;88.63;101370.44;5053825;28;20894;-69
2023/05/17 02:02:05;;;;;;;9.07;1.70;;;;;;;8.12;89.22;101368.28;5053819;28;20857;-69
2023/05/17 02:04:32;;;;;;;5.80;1.40;;;;;;;8.15;89.64;101383.97;5053781;28;20454;-69
2023/05/17 02:06:58;;;;;;;5.77;1.63;;;;;;;8.18;90.05;101384.22;5053350;28;21056;-70
2023/05/17 02:09:25;;;;;;;9.90;1.70;;;;;;;8.27;89.38;101379.13;5053603;28;20473;-69
2023/05/17 02:11:51;;;;;;;6.20;1.47;;;;;;;8.30;88.89;101374.00;5053262;28;20488;-70
2023/05/17 02:14:18;;;;;;;6.80;2.20;;;;;;;8.35;89.60;101373.22;5053327;28;20932;-70
2023/05/17 02:16:46;;;;;;;7.10;1.80;;;;;;;8.37;89.98;101367.56;5053231;28;20444;-70
2023/05/17 02:19:13;;;;;;;6.50;1.63;;;;;;;8.50;89.40;101367.03;5053445;28;20492;-70
2023/05/17 02:21:40;;;;;;;7.27;2.10;;;;;;;8.57;89.31;101365.72;5053191;28;20442;-70
2023/05/17 02:24:07;;;;;;;9.00;2.00;;;;;;;8.64;89.31;101378.16;5053124;28;20517;-69
2023/05/17 02:26:33;;;;;;;7.00;1.90;;;;;;;8.74;88.28;101378.97;5053062;28;20545;-69
2023/05/17 02:29:00;;;;;;;9.80;2.17;;;;;;;8.81;87.74;101373.31;5053306;28;20473;-69
2023/05/17 02:31:27;;;;;;;9.63;2.00;;;;;;;8.83;88.29;101374.66;5053171;28;21033;-69
2023/05/17 02:33:55;;;;;;;5.63;1.53;;;;;;;8.87;88.13;101372.22;5053291;28;20962;-69
2023/05/17 02:36:21;;;;;;;6.30;1.67;;;;;;;8.85;88.48;101368.97;5053278;28;20480;-69
2023/05/17 02:38:48;;;;;;;8.33;1.90;;;;;;;8.95;87.91;101373.59;5053082;28;20546;-69
2023/05/17 02:41:15;;;;;;;8.30;2.63;;;;;;;8.99;87.19;101364.66;5053132;28;20430;-69
2023/05/17 02:43:41;;;;;;;15.80;1.83;;;;;;;9.04;87.39;101364.66;5052821;28;21028;-69
2023/05/17 02:46:08;;;;;;;9.37;2.50;;;;;;;9.09;87.14;101370.06;5053068;28;20523;-69
2023/05/17 02:48:34;;;;;;;5.63;1.60;;;;;;;9.14;86.67;101369.25;5053035;28;20465;-69
2023/05/17 02:51:02;;;;;;;9.47;1.93;;;;;;;9.14;86.62;101371.13;5052984;28;20577;-69
2023/05/17 02:53:29;;;;;;;10.30;2.13;;;;;;;9.06;87.01;101372.50;5053025;28;20449;-69
2023/05/17 02:55:56;;;;;;;14.57;2.30;;;;;;;9.01;87.85;101367.91;5053067;28;20465;-69
2023/05/17 02:58:23;;;;;;;8.67;2.07;;;;;;;9.05;86.76;101373.56;5052815;28;20819;-70
2023/05/17 03:00:50;;;;;;;6.27;1.63;;;;;;;9.08;87.42;101367.63;5052657;28;20446;-70
2023/05/17 03:03:16;;;;;;;12.97;2.03;;;;;;;9.14;86.95;101377.34;5052952;28;20525;-70
2023/05/17 03:05:43;;;;;;;13.30;1.97;;;;;;;9.19;86.86;101380.03;5053161;28;20450;-70
2023/05/17 03:08:11;;;;;;;7.60;2.27;;;;;;;9.18;86.79;101380.31;5052454;28;20461;-70
2023/05/17 03:10:38;;;;;;;7.27;1.37;;;;;;;9.08;87.47;101389.25;5052650;28;20545;-68
2023/05/17 03:13:04;;;;;;;8.67;2.03;;;;;;;9.05;87.95;101384.38;5052746;28;20488;-70
2023/05/17 03:15:31;;;;;;;6.87;1.90;;;;;;;9.06;87.95;101391.41;5052467;28;20458;-70
2023/05/17 03:17:57;;;;;;;10.83;1.63;;;;;;;9.18;87.76;101393.84;5052836;28;20442;-70
2023/05/17 03:20:24;;;;;;;14.73;2.20;;;;;;;9.16;87.66;101399.50;5052371;28;20975;-69
2023/05/17 03:22:51;;;;;;;19.63;1.73;;;;;;;9.17;88.07;101403.84;5052829;28;20826;-69
2023/05/17 03:25:19;;;;;;;8.10;2.10;;;;;;;9.14;88.15;101393.56;5052750;28;20512;-69
2023/05/17 03:27:46;;;;;;;9.03;2.77;;;;;;;9.09;88.87;101399.78;5054349;28;20530;-69
2023/05/17 03:30:12;;;;;;;10.90;1.93;;;;;;;9.07;88.71;101406.53;5052627;28;20458;-69
2023/05/17 03:32:40;;;;;;;7.83;2.00;;;;;;;9.02;89.76;101406.53;5052645;28;20482;-69
2023/05/17 03:35:07;;;;;;;7.00;1.97;;;;;;;9.05;89.26;101400.59;5052679;28;20477;-69
2023/05/17 03:37:34;;;;;;;10.93;1.70;;;;;;;9.07;89.20;101412.78;5053854;28;20438;-69
2023/05/17 03:40:00;;;;;;;9.60;1.77;;;;;;;9.05;88.76;101411.41;5056403;28;20553;-69
2023/05/17 03:42:28;;;;;;;10.47;2.00;;;;;;;9.01;89.88;101421.13;5056376;28;20441;-69
2023/05/17 03:44:55;;;;;;;6.97;1.83;;;;;;;9.02;89.84;101412.75;5055983;28;20473;-69
2023/05/17 03:47:22;;;;;;;6.63;2.00;;;;;;;8.99;90.25;101407.09;5056362;28;20473;-69
2023/05/17 03:49:49;;;;;;;7.00;1.83;;;;;;;8.96;90.47;101413.03;5056176;28;20508;-69
2023/05/17 03:52:15;;;;;;;6.20;2.00;;;;;;;9.01;90.27;101413.03;5056126;28;20508;-69
2023/05/17 03:54:42;;;;;;;5.40;1.47;;;;;;;8.96;90.49;101407.63;5056218;28;20438;-69
2023/05/17 03:57:09;;;;;;;7.53;2.00;;;;;;;8.99;90.50;101410.59;5056168;28;20841;-69
2023/05/17 03:59:37;;;;;;;6.43;1.80;;;;;;;8.96;90.43;101418.44;5055727;28;21047;-69
2023/05/17 04:02:03;;;;;;;10.10;2.10;;;;;;;8.91;91.30;101421.13;5055705;28;20477;-69
2023/05/17 04:04:30;;;;;;;12.13;1.70;;;;;;;8.92;90.89;101423.56;5055719;28;20484;-69
2023/05/17 04:06:56;;;;;;;6.60;1.93;;;;;;;8.91;91.00;101430.06;5055744;28;20890;-71
2023/05/17 04:09:23;;;;;;;11.53;2.00;;;;;;;8.94;90.71;101434.94;5055856;28;20548;-72
2023/05/17 04:11:50;;;;;;;6.80;1.70;;;;;;;8.92;90.92;101434.38;5055773;28;20482;-71
2023/05/17 04:14:18;;;;;;;6.53;1.90;;;;;;;8.88;92.34;101454.09;5055856;28;20531;-69
2023/05/17 04:16:46;;;;;;;11.43;2.17;;;;;;;8.92;91.52;101449.78;5055769;28;20445;-69
2023/05/17 04:19:12;;;;;;;10.87;3.33;;;;;;;8.91;91.29;101457.06;5055713;28;20458;-70
2023/05/17 04:21:39;;;;;;;14.00;3.40;;;;;;;8.82;91.13;101454.09;5055729;28;20438;-69
2023/05/17 04:24:06;;;;;;;9.00;2.53;;;;;;;8.89;91.64;101455.69;5055324;28;20444;-69
2023/05/17 04:26:33;;;;;;;9.67;2.93;;;;;;;8.91;91.38;101462.47;5055515;28;20446;-69
2023/05/17 04:29:00;;;;;;;14.47;2.57;;;;;;;8.95;91.28;101460.06;5055490;28;20462;-69
2023/05/17 04:31:26;;;;;;;7.90;2.37;;;;;;;9.02;91.14;101458.69;5055442;28;20455;-69
2023/05/17 04:33:54;;;;;;;12.10;2.47;;;;;;;9.03;91.32;101468.44;5055436;28;20448;-70
2023/05/17 04:36:21;;;;;;;10.30;2.30;;;;;;;9.09;90.83;101463.84;5055396;28;20442;-70
2023/05/17 04:38:48;;;;;;;5.90;1.63;;;;;;;9.05;91.62;101477.06;5055025;28;20505;-69
2023/05/17 04:41:14;;;;;;;9.00;2.93;;;;;;;9.18;90.87;101475.75;5055348;28;20442;-69
2023/05/17 04:43:41;;;;;;;6.27;1.90;;;;;;;9.19;90.95;101477.34;5054945;28;20442;-70
2023/05/17 04:46:08;;;;;;;12.10;2.83;;;;;;;9.28;90.46;101478.44;5055249;28;20512;-69
2023/05/17 04:48:34;;;;;;;6.50;2.10;;;;;;;9.23;90.56;101483.03;5054840;28;20445;-70
2023/05/17 04:51:03;;;;;;;8.20;2.40;;;;;;;9.26;90.97;101479.81;5054863;28;20446;-69
2023/05/17 04:53:29;;;;;;;7.70;2.37;;;;;;;9.21;91.16;101475.22;5055002;28;20535;-70
2023/05/17 04:55:56;;;;;;;9.67;2.17;;;;;;;9.26;91.09;101488.72;5055358;28;20533;-68
2023/05/17 04:58:23;;;;;;;13.87;2.40;;;;;;;9.27;90.67;101487.63;5054912;28;20900;-69
2023/05/17 05:00:50;;;;;;;7.90;2.67;;;;;;;9.35;90.28;101499.81;5054933;28;20450;-67
2023/05/17 05:03:17;;;;;;;7.07;2.50;;;;;;;9.41;90.04;101495.22;5054808;28;20869;-68
2023/05/17 05:05:44;;;;;;;8.90;2.87;;;;;;;9.48;89.23;101498.47;5054875;28;20880;-68
2023/05/17 05:08:12;;;;;;;12.33;2.27;;;;;;;9.45;89.24;101509.81;5054486;28;20480;-67
2023/05/17 05:10:38;;;;;;;6.13;1.97;;;;;;;9.47;89.24;101516.56;5054340;28;20496;-67
2023/05/17 05:13:05;;;;;;;7.97;2.63;;;;;;;9.48;89.35;101514.69;5054311;28;20517;-68
2023/05/17 05:15:32;;;;;;;10.63;2.70;;;;;;;9.51;89.24;101522.25;5054882;28;20445;-68
2023/05/17 05:17:58;;;;;;;7.40;2.23;;;;;;;9.56;88.57;101530.34;5054679;28;20477;-68
2023/05/17 05:20:25;;;;;;;14.53;2.83;;;;;;;9.67;87.85;101523.88;5054508;28;20501;-68
2023/05/17 05:22:51;;;;;;;11.50;1.70;;;;;;;9.66;88.18;101535.78;5054536;28;20517;-68
2023/05/17 05:25:20;;;;;;;7.50;2.50;;;;;;;9.68;87.60;101544.41;5054505;28;20442;-68
2023/05/17 05:27:46;;;;;;;7.80;1.80;;;;;;;9.80;87.56;101549.56;5054367;28;20470;-68
2023/05/17 05:30:20;;;;;;;12.70;2.70;;;;;;;9.88;87.42;101557.13;5054331;28;20836;-68
2023/05/17 05:32:47;;;;;;;13.03;2.33;;;;;;;10.02;85.99;101557.38;5053893;28;20477;-68
2023/05/17 05:35:13;;;;;;;10.53;1.90;;;;;;;10.04;85.44;101553.31;5054219;28;20438;-67
2023/05/17 05:37:41;;;;;;;8.10;1.97;;;;;;;10.10;85.03;101556.84;5053961;28;20981;-67
2023/05/17 05:40:09;;;;;;;17.53;2.37;;;;;;;10.18;82.66;101556.28;5054160;28;20549;-68
2023/05/17 05:42:38;;;;;;;7.00;2.00;;;;;;;10.27;83.33;101568.22;5053840;28;20948;-68
2023/05/17 05:45:05;;;;;;;8.63;1.80;;;;;;;10.44;81.56;101567.88;5054121;28;20446;-67
2023/05/17 05:47:32;;;;;;;7.30;2.00;;;;;;;10.45;80.08;101571.41;5054093;28;20529;-67
2023/05/17 05:49:59;;;;;;;14.07;2.47;;;;;;;10.22;80.64;101570.88;5053719;28;20902;-68
2023/05/17 05:52:25;;;;;;;8.03;2.07;;;;;;;10.28;76.32;101587.97;5053565;28;21089;-67
2023/05/17 05:54:52;;;;;;;13.17;1.90;;;;;;;10.27;76.07;101570.06;5053934;28;20448;-67
2023/05/17 05:57:19;;;;;;;8.07;2.00;;;;;;;10.25;77.42;101577.69;5053681;28;20576;-67
2023/05/17 05:59:47;;;;;;;6.63;1.80;;;;;;;10.25;78.09;101586.59;5052559;28;20525;-68
2023/05/17 06:02:13;;;;;;;15.27;2.13;;;;;;;10.33;75.44;101582.53;5053144;28;21010;-71
2023/05/17 06:04:40;;;;;;;11.30;1.90;;;;;;;10.46;76.82;101586.56;5053347;28;20443;-70
2023/05/17 06:07:07;;;;;;;6.17;1.37;;;;;;;10.59;75.47;101596.81;5052978;28;20541;-70
2023/05/17 06:09:33;;;;;;;10.60;1.60;;;;;;;10.75;74.54;101602.97;5053220;28;21014;-73
2023/05/17 06:12:00;;;;;;;9.43;1.60;;;;;;;10.82;69.31;101607.03;5053006;28;20457;-72
2023/05/17 06:14:27;;;;;;;12.07;2.13;;;;;;;10.75;70.67;101605.69;5053056;28;20952;-72
2023/05/17 06:16:55;;;;;;;12.10;1.77;;;;;;;10.78;69.40;101614.09;5053223;28;20477;-72
2023/05/17 06:19:21;;;;;;;6.87;1.43;;;;;;;10.76;71.13;101600.03;5052878;28;20454;-74
2023/05/17 06:21:48;;;;;;;12.00;1.67;;;;;;;10.73;69.31;101607.88;5053009;28;20434;-71
2023/05/17 06:24:15;;;;;;;6.80;1.33;;;;;;;10.79;70.87;101612.19;5053326;28;20481;-69
2023/05/17 06:26:42;;;;;;;6.87;1.70;;;;;;;10.99;71.95;101619.44;5053200;28;20442;-70
2023/05/17 06:29:09;;;;;;;6.10;1.43;;;;;;;11.19;68.37;101626.66;5053108;28;20902;-69
2023/05/17 06:31:36;;;;;;;5.20;1.10;;;;;;;11.36;68.04;101633.31;5053039;28;20442;-68
2023/05/17 06:34:04;;;;;;;14.60;2.17;;;;;;;11.55;67.17;101633.50;5052760;28;20490;-72
2023/05/17 06:36:30;;;;;;;9.10;1.93;;;;;;;11.59;66.24;101623.69;5053071;28;20476;-69
2023/05/17 06:38:57;;;;;;;6.17;1.13;;;;;;;11.66;66.92;101623.38;5053048;28;21028;-70
2023/05/17 06:41:23;;;;;;;6.40;1.30;;;;;;;11.84;67.38;101628.16;5053032;28;20452;-69
2023/05/17 06:43:50;;;;;;;6.10;1.77;;;;;;;11.80;66.25;101620.81;5052953;28;20470;-69
2023/05/17 06:46:16;;;;;;;11.50;1.60;;;;;;;11.58;68.00;101623.97;5052620;28;20450;-69
2023/05/17 06:48:43;;;;;;;7.80;1.67;;;;;;;11.49;68.01;101626.47;5052818;28;20545;-69
2023/05/17 06:51:11;;;;;;;11.23;2.33;;;;;;;11.37;68.99;101624.09;5053164;28;20446;-70
2023/05/17 06:53:38;;;;;;;5.20;1.50;;;;;;;11.27;68.33;101639.63;5052708;28;20525;-68
2023/05/17 06:56:04;;;;;;;12.90;2.03;;;;;;;11.08;69.46;101642.97;5052821;28;20865;-70
2023/05/17 06:58:31;;;;;;;8.07;1.87;;;;;;;10.94;70.26;101641.16;5052274;28;20442;-68
2023/05/17 07:00:58;;;;;;;8.37;1.80;;;;;;;11.02;70.77;101645.97;5052313;28;20477;-67
2023/05/17 07:03:25;;;;;;;7.90;1.90;;;;;;;11.14;68.72;101646.47;5052400;28;20873;-67
2023/05/17 07:05:51;;;;;;;6.87;1.43;;;;;;;11.08;69.28;101647.59;5052449;28;20503;-68
2023/05/17 07:08:20;;;;;;;6.07;1.33;;;;;;;11.10;70.80;101650.81;5052461;28;20472;-68
2023/05/17 07:10:46;;;;;;;6.90;1.50;;;;;;;11.09;67.19;101649.19;5052786;28;20446;-66
2023/05/17 07:13:13;;;;;;;8.77;1.80;;;;;;;10.93;65.90;101642.22;5056678;28;20493;-68
2023/05/17 07:15:39;;;;;;;8.70;1.70;;;;;;;11.16;66.89;101648.91;5056698;28;20446;-68
2023/05/17 07:18:06;;;;;;;11.50;2.20;;;;;;;11.42;65.81;101644.16;5056660;28;20481;-68
2023/05/17 07:20:33;;;;;;;6.40;1.50;;;;;;;11.41;63.06;101647.94;5056242;28;20537;-67
2023/05/17 07:22:59;;;;;;;10.23;1.70;;;;;;;11.47;62.57;101649.56;5056810;28;20440;-68
2023/05/17 07:25:27;;;;;;;7.30;1.70;;;;;;;11.49;62.77;101639.22;5056550;28;20452;-68
2023/05/17 07:27:54;;;;;;;12.17;2.40;;;;;;;11.53;64.80;101659.28;5056235;28;20533;-68
2023/05/17 07:30:21;;;;;;;6.57;1.77;;;;;;;11.58;63.79;101665.47;5056409;28;20549;-68
2023/05/17 07:32:47;;;;;;;6.37;1.20;;;;;;;11.46;62.80;101658.78;5056399;28;20482;-67
2023/05/17 07:35:14;;;;;;;6.20;1.60;;;;;;;11.42;62.37;101665.84;5056385;28;20549;-67
2023/05/17 07:37:40;;;;;;;6.87;1.23;;;;;;;11.35;59.73;101663.47;5056331;28;20446;-68
2023/05/17 07:40:08;;;;;;;9.80;1.90;;;;;;;11.20;59.08;101674.38;5056204;28;20464;-68
2023/05/17 07:42:36;;;;;;;8.97;1.30;;;;;;;11.28;59.11;101673.78;5056228;28;20473;-67
2023/05/17 07:45:03;;;;;;;7.13;1.20;;;;;;;11.32;58.02;101686.50;5056195;28;20470;-68
2023/05/17 07:47:30;;;;;;;5.30;1.40;;;;;;;11.30;57.62;101668.91;5056173;28;20442;-68
2023/05/17 07:49:57;;;;;;;7.13;0.90;;;;;;;11.25;59.24;101683.31;5056238;28;20469;-68
2023/05/17 07:52:24;;;;;;;7.30;1.07;;;;;;;11.36;58.36;101679.44;5056191;28;20446;-71
2023/05/17 07:54:50;;;;;;;8.20;1.60;;;;;;;11.39;57.90;101682.69;5055898;28;20446;-70
2023/05/17 07:57:18;;;;;;;9.73;1.30;;;;;;;11.54;56.54;101701.59;5055884;28;20529;-69
2023/05/17 07:59:46;;;;;;;10.03;1.07;;;;;;;11.60;56.19;101697.78;5055858;28;20471;-69
2023/05/17 08:02:12;;;;;;;10.70;1.67;;;;;;;11.54;57.49;101704.31;5055479;28;20966;-68
2023/05/17 08:04:40;;;;;;;5.27;1.00;;;;;;;11.50;56.30;101703.25;5056059;28;20525;-69
2023/05/17 08:07:07;;;;;;;6.53;1.27;;;;;;;11.56;57.27;101704.88;5055923;28;20464;-69
2023/05/17 08:09:33;;;;;;;6.10;1.47;;;;;;;11.57;56.91;101714.63;5055882;28;20458;-69
2023/05/17 08:12:00;;;;;;;15.03;1.77;;;;;;;11.50;55.28;101709.47;5055909;28;20438;-69
2023/05/17 08:14:27;;;;;;;7.03;1.27;;;;;;;11.62;55.13;101718.09;5055501;28;20478;-69
2023/05/17 08:16:55;;;;;;;5.67;1.20;;;;;;;11.65;54.43;101716.75;5055828;28;20454;-69
2023/05/17 08:19:21;;;;;;;7.23;0.87;;;;;;;11.82;55.74;101724.50;5055704;28;20468;-69
2023/05/17 08:21:48;;;;;;;5.93;1.17;;;;;;;11.84;55.58;101723.16;5055496;28;20999;-69
2023/05/17 08:24:16;;;;;;;5.93;1.20;;;;;;;11.82;54.50;101719.94;5055006;28;20502;-69
2023/05/17 08:26:43;;;;;;;8.10;2.00;;;;;;;11.96;56.26;101727.44;5055636;28;20446;-69
2023/05/17 08:29:09;;;;;;;13.73;1.60;;;;;;;12.05;53.53;101732.00;5055444;28;20505;-68
2023/05/17 08:31:36;;;;;;;8.00;1.53;;;;;;;11.96;53.67;101738.31;5055276;28;20935;-68
2023/05/17 08:34:04;;;;;;;14.60;1.60;;;;;;;11.98;52.99;101727.97;5055370;28;20935;-70
2023/05/17 08:36:30;;;;;;;7.97;1.00;;;;;;;11.93;53.44;101734.25;5055099;28;20478;-68
2023/05/17 08:38:57;;;;;;;6.23;1.17;;;;;;;11.91;51.89;101727.47;5055295;28;20545;-68
2023/05/17 08:41:24;;;;;;;5.23;0.80;;;;;;;11.98;52.09;101728.78;5055331;28;20443;-69
2023/05/17 08:43:51;;;;;;;7.50;1.10;;;;;;;12.03;53.59;101730.63;5055278;28;20877;-68
2023/05/17 08:46:20;;;;;;;8.20;1.47;;;;;;;11.96;54.04;101733.69;5054931;28;20434;-68
2023/05/17 08:48:50;;;;;;;6.73;1.50;;;;;;;11.98;53.60;101722.53;5055172;28;20469;-69
2023/05/17 08:51:19;;;;;;;7.30;1.47;;;;;;;12.19;53.69;101726.72;5055113;28;20438;-69
2023/05/17 08:53:46;;;;;;;5.70;0.90;;;;;;;12.37;53.71;101741.53;5054771;28;21111;-68
2023/05/17 08:56:17;;;;;;;5.00;1.00;;;;;;;12.41;53.31;101730.91;5055034;28;20442;-69
2023/05/17 08:58:46;;;;;;;7.50;0.97;;;;;;;12.48;52.55;101739.53;5054745;28;20462;-69
2023/05/17 09:01:14;;;;;;;7.97;1.10;;;;;;;12.43;51.83;101728.69;5054980;28;20943;-68
2023/05/17 09:03:42;;;;;;;8.53;1.50;;;;;;;12.53;49.19;101734.88;5054953;28;20438;-68
2023/05/17 09:06:09;;;;;;;9.30;1.57;;;;;;;12.58;48.46;101728.59;5054925;28;20439;-69
2023/05/17 09:08:38;;;;;;;7.83;1.30;;;;;;;12.48;50.04;101744.97;5054673;28;20871;-68
2023/05/17 09:11:05;;;;;;;10.23;1.70;;;;;;;12.40;50.13;101734.72;5054813;28;20521;-69
2023/05/17 09:13:31;;;;;;;5.73;0.90;;;;;;;12.41;52.40;101728.19;5054716;28;20577;-69
2023/05/17 09:15:58;;;;;;;9.97;1.10;;;;;;;12.58;52.24;101736.72;5054423;28;20442;-68
2023/05/17 09:18:31;;;;;;;10.67;1.47;;;;;;;12.72;51.32;101728.72;5054543;28;20469;-69
2023/05/17 09:21:03;;;;;;;9.50;1.50;;;;;;;12.70;52.61;101739.84;5054338;28;20945;-69
2023/05/17 09:23:32;;;;;;;8.03;1.33;;;;;;;12.81;51.69;101732.44;5054903;28;20422;-69
2023/05/17 09:26:06;;;;;;;5.80;0.80;;;;;;;12.92;48.81;101722.25;5054791;28;20438;-70
2023/05/17 09:28:38;;;;;;;9.80;1.67;;;;;;;12.95;48.76;101722.47;5055913;28;20433;-71
2023/05/17 09:31:06;;;;;;;8.60;1.30;;;;;;;12.97;49.37;101731.19;5054357;28;20803;-70
2023/05/17 09:33:32;;;;;;;5.40;1.40;;;;;;;13.04;49.13;101731.63;5054485;28;20478;-71
2023/05/17 09:36:01;;;;;;;7.40;1.07;;;;;;;13.01;49.55;101720.50;5053136;28;20477;-70
2023/05/17 09:38:27;;;;;;;8.53;1.03;;;;;;;13.17;50.47;101740.19;5054270;28;20538;-69
2023/05/17 09:40:54;;;;;;;12.90;1.13;;;;;;;13.23;47.08;101723.53;5054414;28;20483;-67
2023/05/17 09:43:25;;;;;;;5.10;1.00;;;;;;;13.12;47.73;101727.47;5053955;28;20980;-68
2023/05/17 09:46:00;;;;;;;5.00;1.07;;;;;;;13.05;47.47;101733.25;5054547;28;20440;-68
2023/05/17 09:48:27;;;;;;;5.60;1.40;;;;;;;13.21;49.57;101725.72;5054985;28;20433;-67
2023/05/17 09:50:54;;;;;;;7.07;1.30;;;;;;;13.38;47.91;101722.56;5054600;28;20453;-67
2023/05/17 09:53:28;;;;;;;8.27;1.70;;;;;;;13.40;47.07;101731.22;5053628;28;20485;-69
2023/05/17 09:55:57;;;;;;;8.77;0.90;;;;;;;13.45;47.50;101735.78;5053735;28;20481;-68
2023/05/17 09:58:26;;;;;;;5.20;1.20;;;;;;;13.44;48.04;101735.00;5053965;28;20434;-69
2023/05/17 10:00:54;;;;;;;4.50;0.70;;;;;;;13.40;46.40;101742.13;5053467;28;20955;-70
2023/05/17 10:03:21;;;;;;;5.13;0.80;;;;;;;13.34;47.28;101735.94;5053807;28;20529;-70
2023/05/17 10:05:52;;;;;;;7.93;1.30;;;;;;;13.49;47.34;101734.91;5053479;28;20947;-69
2023/05/17 10:08:22;;;;;;;6.13;1.00;;;;;;;13.70;47.11;101740.91;5053371;28;20527;-70
2023/05/17 10:10:49;;;;;;;10.90;1.40;;;;;;;13.67;45.14;101743.41;5054046;28;20441;-71
2023/05/17 10:13:20;;;;;;;6.13;0.77;;;;;;;13.68;45.35;101745.00;5053583;28;20448;-70
2023/05/17 10:15:49;;;;;;;6.10;1.37;;;;;;;13.70;45.99;101749.06;5054446;28;20435;-70
2023/05/17 10:18:17;;;;;;;8.33;1.23;;;;;;;13.84;47.18;101735.53;5053904;28;20454;-71
2023/05/17 10:20:43;;;;;;;5.33;1.03;;;;;;;14.05;47.26;101733.31;5057322;28;20445;-75
2023/05/17 10:23:11;;;;;;;10.27;1.83;;;;;;;14.14;45.28;101732.34;5053244;28;20533;-71
2023/05/17 10:25:38;;;;;;;5.00;0.70;;;;;;;14.12;44.81;101737.31;5053558;28;20529;-70
2023/05/17 10:28:06;;;;;;;5.63;1.03;;;;;;;14.08;45.18;101741.72;5053387;28;20480;-72
2023/05/17 10:30:34;;;;;;;10.47;1.20;;;;;;;14.19;44.98;101745.09;5053387;28;20474;-70
2023/05/17 10:33:03;;;;;;;7.10;1.30;;;;;;;14.24;44.65;101747.72;5053423;28;20469;-71
2023/05/17 10:35:31;;;;;;;4.40;0.60;;;;;;;14.21;44.83;101740.16;5053279;28;20537;-71
2023/05/17 10:37:58;;;;;;;9.77;1.60;;;;;;;14.27;43.52;101758.03;5053326;28;20443;-71
2023/05/17 10:40:24;;;;;;;7.53;1.00;;;;;;;14.31;44.20;101752.81;5053071;28;20570;-71
2023/05/17 10:42:53;;;;;;;4.77;0.67;;;;;;;14.54;44.41;101756.56;5053193;28;20457;-71
2023/05/17 10:45:22;;;;;;;6.00;0.80;;;;;;;14.44;45.53;101759.44;5053197;28;20442;-71
2023/05/17 10:47:51;;;;;;;7.27;1.30;;;;;;;14.63;43.47;101757.47;5052846;28;20479;-71
2023/05/17 10:50:23;;;;;;;10.20;1.33;;;;;;;14.79;43.25;101758.84;5053069;28;20557;-71
2023/05/17 10:52:51;;;;;;;9.40;2.20;;;;;;;14.77;44.00;101760.22;5053106;28;20419;-71
2023/05/17 10:55:21;;;;;;;7.93;1.73;;;;;;;14.80;43.86;101755.00;5052563;28;21014;-71
2023/05/17 10:58:14;;;;;;;5.90;1.30;;;;;;;15.07;43.13;101765.13;5052667;28;20497;-71
2023/05/17 11:00:42;;;;;;;7.30;1.60;;;;;;;14.72;43.25;101763.88;5052958;28;20504;-71
2023/05/17 11:03:13;;;;;;;9.40;1.27;;;;;;;14.85;43.80;101765.81;5052661;28;20540;-71
2023/05/17 11:05:44;;;;;;;8.60;1.23;;;;;;;15.07;42.53;101767.06;5052987;28;20439;-71
2023/05/17 11:08:16;;;;;;;5.73;0.90;;;;;;;15.07;42.34;101765.13;5052532;28;20462;-71
2023/05/17 11:11:08;;;;;;;15.57;1.77;;;;;;;15.20;42.57;101770.91;5052395;28;20470;-71
2023/05/17 11:13:43;;;;;;;6.67;0.87;;;;;;;15.46;42.71;101771.19;5052710;28;20529;-71
2023/05/17 11:16:10;;;;;;;7.00;1.50;;;;;;;15.81;42.08;101759.53;5052848;28;20540;-71
2023/05/17 11:18:50;;;;;;;6.40;0.90;;;;;;;16.31;41.60;101770.41;5052694;28;20545;-72
2023/05/17 11:21:18;;;;;;;8.10;1.43;;;;;;;16.92;39.88;101778.22;5052831;28;20449;-71
2023/05/17 11:23:46;;;;;;;9.83;1.27;;;;;;;17.47;39.73;101784.03;5052804;28;20473;-71
2023/05/17 11:26:18;;;;;;;4.90;0.80;;;;;;;17.79;37.97;101773.81;5052740;28;20453;-71
2023/05/17 11:28:44;;;;;;;7.93;1.30;;;;;;;18.27;38.11;101768.19;5052313;28;20990;-71